sensor_id;sensor_type;location;lat;lon;timestamp;P1;durP1;ratioP1;P2;durP2;ratioP2
52041;SDS011;38052;45.944;13.624;2024-02-14T00:00:37;1.95;;;0.80;;
52041;SDS011;38052;45.944;13.624;2024-02-14T00:03:06;2.40;;;1.00;;
52041;SDS011;38052;45.944;13.624;2024-02-14T00:05:32;4.53;;;1.15;;
52041;SDS011;38052;45.944;13.624;2024-02-14T00:07:59;3.42;;;1.17;;
52041;SDS011;38052;45.944;13.624;2024-02-14T00:10:26;2.10;;;1.25;;
52041;SDS011;38052;45.944;13.624;2024-02-14T00:12:52;3.45;;;1.25;;
52041;SDS011;38052;45.944;13.624;2024-02-14T00:15:19;1.90;;;0.80;;
52041;SDS011;38052;45.944;13.624;2024-02-14T00:17:45;4.05;;;1.17;;
52041;SDS011;38052;45.944;13.624;2024-02-14T00:20:12;3.47;;;1.05;;
52041;SDS011;38052;45.944;13.624;2024-02-14T00:22:39;6.47;;;1.20;;
52041;SDS011;38052;45.944;13.624;2024-02-14T00:25:05;3.38;;;1.42;;
52041;SDS011;38052;45.944;13.624;2024-02-14T00:27:32;2.75;;;1.42;;
52041;SDS011;38052;45.944;13.624;2024-02-14T00:29:58;3.08;;;0.75;;
52041;SDS011;38052;45.944;13.624;2024-02-14T00:32:25;5.03;;;1.48;;
52041;SDS011;38052;45.944;13.624;2024-02-14T00:34:52;2.13;;;0.95;;
52041;SDS011;38052;45.944;13.624;2024-02-14T00:37:19;3.65;;;0.90;;
52041;SDS011;38052;45.944;13.624;2024-02-14T00:39:45;4.45;;;1.63;;
52041;SDS011;38052;45.944;13.624;2024-02-14T00:42:13;4.07;;;1.50;;
52041;SDS011;38052;45.944;13.624;2024-02-14T00:44:40;1.58;;;0.60;;
52041;SDS011;38052;45.944;13.624;2024-02-14T00:47:06;4.07;;;1.27;;
52041;SDS011;38052;45.944;13.624;2024-02-14T00:49:36;2.08;;;0.85;;
52041;SDS011;38052;45.944;13.624;2024-02-14T00:52:04;3.42;;;0.88;;
52041;SDS011;38052;45.944;13.624;2024-02-14T00:54:31;1.90;;;0.70;;
52041;SDS011;38052;45.944;13.624;2024-02-14T00:56:58;2.28;;;0.80;;
52041;SDS011;38052;45.944;13.624;2024-02-14T00:59:24;2.88;;;0.90;;
52041;SDS011;38052;45.944;13.624;2024-02-14T01:01:51;3.13;;;0.75;;
52041;SDS011;38052;45.944;13.624;2024-02-14T01:04:17;2.30;;;1.33;;
52041;SDS011;38052;45.944;13.624;2024-02-14T01:06:44;2.50;;;0.90;;
52041;SDS011;38052;45.944;13.624;2024-02-14T01:09:11;3.42;;;0.80;;
52041;SDS011;38052;45.944;13.624;2024-02-14T01:11:37;2.67;;;0.70;;
52041;SDS011;38052;45.944;13.624;2024-02-14T01:14:05;2.03;;;0.73;;
52041;SDS011;38052;45.944;13.624;2024-02-14T01:16:31;1.55;;;0.55;;
52041;SDS011;38052;45.944;13.624;2024-02-14T01:18:58;2.65;;;0.68;;
52041;SDS011;38052;45.944;13.624;2024-02-14T01:21:25;5.07;;;0.77;;
52041;SDS011;38052;45.944;13.624;2024-02-14T01:23:51;1.92;;;0.80;;
52041;SDS011;38052;45.944;13.624;2024-02-14T01:26:17;1.88;;;0.90;;
52041;SDS011;38052;45.944;13.624;2024-02-14T01:28:45;3.03;;;0.98;;
52041;SDS011;38052;45.944;13.624;2024-02-14T01:31:12;1.40;;;0.55;;
52041;SDS011;38052;45.944;13.624;2024-02-14T01:33:38;2.67;;;0.95;;
52041;SDS011;38052;45.944;13.624;2024-02-14T01:36:05;2.15;;;0.75;;
52041;SDS011;38052;45.944;13.624;2024-02-14T01:38:31;1.27;;;0.75;;
52041;SDS011;38052;45.944;13.624;2024-02-14T01:41:00;5.03;;;1.17;;
52041;SDS011;38052;45.944;13.624;2024-02-14T01:43:28;1.58;;;0.80;;
52041;SDS011;38052;45.944;13.624;2024-02-14T01:45:54;2.03;;;0.88;;
52041;SDS011;38052;45.944;13.624;2024-02-14T01:48:20;4.18;;;1.10;;
52041;SDS011;38052;45.944;13.624;2024-02-14T01:50:46;2.00;;;0.60;;
52041;SDS011;38052;45.944;13.624;2024-02-14T01:53:13;1.70;;;0.70;;
52041;SDS011;38052;45.944;13.624;2024-02-14T01:55:40;2.03;;;0.90;;
52041;SDS011;38052;45.944;13.624;2024-02-14T01:58:06;2.55;;;0.70;;
52041;SDS011;38052;45.944;13.624;2024-02-14T02:00:32;3.13;;;0.70;;
52041;SDS011;38052;45.944;13.624;2024-02-14T02:02:59;2.70;;;0.65;;
52041;SDS011;38052;45.944;13.624;2024-02-14T02:05:25;2.28;;;0.93;;
52041;SDS011;38052;45.944;13.624;2024-02-14T02:07:51;3.50;;;1.15;;
52041;SDS011;38052;45.944;13.624;2024-02-14T02:10:19;3.25;;;0.90;;
52041;SDS011;38052;45.944;13.624;2024-02-14T02:12:47;2.13;;;0.65;;
52041;SDS011;38052;45.944;13.624;2024-02-14T02:15:13;4.85;;;1.30;;
52041;SDS011;38052;45.944;13.624;2024-02-14T02:17:39;2.30;;;0.77;;
52041;SDS011;38052;45.944;13.624;2024-02-14T02:20:06;3.83;;;1.17;;
52041;SDS011;38052;45.944;13.624;2024-02-14T02:22:33;1.92;;;1.08;;
52041;SDS011;38052;45.944;13.624;2024-02-14T02:25:03;3.75;;;1.25;;
52041;SDS011;38052;45.944;13.624;2024-02-14T02:27:32;2.22;;;0.98;;
52041;SDS011;38052;45.944;13.624;2024-02-14T02:30:00;1.85;;;0.90;;
52041;SDS011;38052;45.944;13.624;2024-02-14T02:32:26;2.40;;;0.93;;
52041;SDS011;38052;45.944;13.624;2024-02-14T02:34:53;2.17;;;0.68;;
52041;SDS011;38052;45.944;13.624;2024-02-14T02:37:19;1.35;;;0.60;;
52041;SDS011;38052;45.944;13.624;2024-02-14T02:39:46;2.92;;;0.93;;
52041;SDS011;38052;45.944;13.624;2024-02-14T02:42:13;2.30;;;0.90;;
52041;SDS011;38052;45.944;13.624;2024-02-14T02:44:39;2.35;;;0.68;;
52041;SDS011;38052;45.944;13.624;2024-02-14T02:47:06;3.17;;;0.60;;
52041;SDS011;38052;45.944;13.624;2024-02-14T02:49:32;1.88;;;0.93;;
52041;SDS011;38052;45.944;13.624;2024-02-14T02:51:58;3.38;;;0.60;;
52041;SDS011;38052;45.944;13.624;2024-02-14T02:54:24;2.22;;;0.50;;
52041;SDS011;38052;45.944;13.624;2024-02-14T02:56:50;2.63;;;0.98;;
52041;SDS011;38052;45.944;13.624;2024-02-14T02:59:17;2.38;;;1.10;;
52041;SDS011;38052;45.944;13.624;2024-02-14T03:01:43;1.60;;;0.73;;
52041;SDS011;38052;45.944;13.624;2024-02-14T03:04:10;3.70;;;0.80;;
52041;SDS011;38052;45.944;13.624;2024-02-14T03:06:38;4.88;;;1.00;;
52041;SDS011;38052;45.944;13.624;2024-02-14T03:09:05;3.95;;;0.90;;
52041;SDS011;38052;45.944;13.624;2024-02-14T03:11:32;1.58;;;0.75;;
52041;SDS011;38052;45.944;13.624;2024-02-14T03:13:59;3.10;;;0.60;;
52041;SDS011;38052;45.944;13.624;2024-02-14T03:16:26;3.60;;;1.20;;
52041;SDS011;38052;45.944;13.624;2024-02-14T03:18:52;1.40;;;0.80;;
52041;SDS011;38052;45.944;13.624;2024-02-14T03:21:19;1.80;;;0.88;;
52041;SDS011;38052;45.944;13.624;2024-02-14T03:23:46;4.38;;;2.28;;
52041;SDS011;38052;45.944;13.624;2024-02-14T03:26:12;3.08;;;1.10;;
52041;SDS011;38052;45.944;13.624;2024-02-14T03:28:39;2.75;;;0.88;;
52041;SDS011;38052;45.944;13.624;2024-02-14T03:31:05;3.33;;;1.42;;
52041;SDS011;38052;45.944;13.624;2024-02-14T03:33:31;1.85;;;0.80;;
52041;SDS011;38052;45.944;13.624;2024-02-14T03:35:58;3.38;;;1.33;;
52041;SDS011;38052;45.944;13.624;2024-02-14T03:38:28;4.85;;;1.15;;
52041;SDS011;38052;45.944;13.624;2024-02-14T03:40:54;3.60;;;1.00;;
52041;SDS011;38052;45.944;13.624;2024-02-14T03:43:20;4.50;;;0.90;;
52041;SDS011;38052;45.944;13.624;2024-02-14T03:45:49;12.07;;;1.42;;
52041;SDS011;38052;45.944;13.624;2024-02-14T03:48:16;4.20;;;1.10;;
52041;SDS011;38052;45.944;13.624;2024-02-14T03:50:43;3.92;;;1.13;;
52041;SDS011;38052;45.944;13.624;2024-02-14T03:53:10;2.30;;;0.80;;
52041;SDS011;38052;45.944;13.624;2024-02-14T03:55:36;1.95;;;0.60;;
52041;SDS011;38052;45.944;13.624;2024-02-14T03:58:03;2.42;;;0.68;;
52041;SDS011;38052;45.944;13.624;2024-02-14T04:00:30;3.30;;;0.73;;
52041;SDS011;38052;45.944;13.624;2024-02-14T04:02:57;2.13;;;0.90;;
52041;SDS011;38052;45.944;13.624;2024-02-14T04:05:24;1.60;;;0.70;;
52041;SDS011;38052;45.944;13.624;2024-02-14T04:07:50;2.05;;;0.93;;
52041;SDS011;38052;45.944;13.624;2024-02-14T04:10:17;3.45;;;0.70;;
52041;SDS011;38052;45.944;13.624;2024-02-14T04:12:43;1.73;;;0.80;;
52041;SDS011;38052;45.944;13.624;2024-02-14T04:15:10;3.92;;;0.90;;
52041;SDS011;38052;45.944;13.624;2024-02-14T04:17:36;5.63;;;0.90;;
52041;SDS011;38052;45.944;13.624;2024-02-14T04:20:03;2.65;;;0.70;;
52041;SDS011;38052;45.944;13.624;2024-02-14T04:22:30;2.38;;;0.80;;
52041;SDS011;38052;45.944;13.624;2024-02-14T04:24:56;3.08;;;1.52;;
52041;SDS011;38052;45.944;13.624;2024-02-14T04:27:23;2.55;;;0.80;;
52041;SDS011;38052;45.944;13.624;2024-02-14T04:29:49;9.70;;;1.33;;
52041;SDS011;38052;45.944;13.624;2024-02-14T04:32:16;6.18;;;1.13;;
52041;SDS011;38052;45.944;13.624;2024-02-14T04:34:42;1.45;;;0.63;;
52041;SDS011;38052;45.944;13.624;2024-02-14T04:37:09;3.17;;;0.50;;
52041;SDS011;38052;45.944;13.624;2024-02-14T04:39:38;2.88;;;1.20;;
52041;SDS011;38052;45.944;13.624;2024-02-14T04:42:04;4.68;;;1.08;;
52041;SDS011;38052;45.944;13.624;2024-02-14T04:44:31;2.83;;;0.88;;
52041;SDS011;38052;45.944;13.624;2024-02-14T04:46:57;1.92;;;0.63;;
52041;SDS011;38052;45.944;13.624;2024-02-14T04:49:24;2.97;;;0.80;;
52041;SDS011;38052;45.944;13.624;2024-02-14T04:51:51;5.78;;;0.80;;
52041;SDS011;38052;45.944;13.624;2024-02-14T04:54:17;3.35;;;0.65;;
52041;SDS011;38052;45.944;13.624;2024-02-14T04:56:44;2.65;;;0.80;;
52041;SDS011;38052;45.944;13.624;2024-02-14T04:59:11;2.05;;;1.10;;
52041;SDS011;38052;45.944;13.624;2024-02-14T05:01:38;1.90;;;0.93;;
52041;SDS011;38052;45.944;13.624;2024-02-14T05:04:05;2.55;;;0.88;;
52041;SDS011;38052;45.944;13.624;2024-02-14T05:06:32;2.38;;;1.00;;
52041;SDS011;38052;45.944;13.624;2024-02-14T05:08:58;3.13;;;0.80;;
52041;SDS011;38052;45.944;13.624;2024-02-14T05:11:24;3.10;;;0.90;;
52041;SDS011;38052;45.944;13.624;2024-02-14T05:13:51;1.92;;;0.75;;
52041;SDS011;38052;45.944;13.624;2024-02-14T05:16:18;3.30;;;0.93;;
52041;SDS011;38052;45.944;13.624;2024-02-14T05:18:44;3.33;;;0.63;;
52041;SDS011;38052;45.944;13.624;2024-02-14T05:21:10;3.28;;;1.10;;
52041;SDS011;38052;45.944;13.624;2024-02-14T05:23:37;2.80;;;1.08;;
52041;SDS011;38052;45.944;13.624;2024-02-14T05:26:03;1.70;;;0.50;;
52041;SDS011;38052;45.944;13.624;2024-02-14T05:28:30;3.40;;;0.80;;
52041;SDS011;38052;45.944;13.624;2024-02-14T05:30:57;2.60;;;0.88;;
52041;SDS011;38052;45.944;13.624;2024-02-14T05:33:23;4.97;;;0.68;;
52041;SDS011;38052;45.944;13.624;2024-02-14T05:35:50;8.15;;;0.82;;
52041;SDS011;38052;45.944;13.624;2024-02-14T05:38:16;1.80;;;0.68;;
52041;SDS011;38052;45.944;13.624;2024-02-14T05:40:47;4.43;;;1.08;;
52041;SDS011;38052;45.944;13.624;2024-02-14T05:43:14;2.13;;;0.73;;
52041;SDS011;38052;45.944;13.624;2024-02-14T05:45:40;3.20;;;1.20;;
52041;SDS011;38052;45.944;13.624;2024-02-14T05:48:07;2.95;;;1.08;;
52041;SDS011;38052;45.944;13.624;2024-02-14T05:50:33;2.80;;;0.80;;
52041;SDS011;38052;45.944;13.624;2024-02-14T05:53:00;5.95;;;0.98;;
52041;SDS011;38052;45.944;13.624;2024-02-14T05:55:26;2.55;;;1.10;;
52041;SDS011;38052;45.944;13.624;2024-02-14T05:57:52;2.92;;;0.85;;
52041;SDS011;38052;45.944;13.624;2024-02-14T06:00:19;1.50;;;0.93;;
52041;SDS011;38052;45.944;13.624;2024-02-14T06:02:46;2.63;;;0.98;;
52041;SDS011;38052;45.944;13.624;2024-02-14T06:05:12;4.72;;;0.93;;
52041;SDS011;38052;45.944;13.624;2024-02-14T06:07:39;3.85;;;0.95;;
52041;SDS011;38052;45.944;13.624;2024-02-14T06:10:06;4.85;;;1.40;;
52041;SDS011;38052;45.944;13.624;2024-02-14T06:12:32;2.55;;;1.10;;
52041;SDS011;38052;45.944;13.624;2024-02-14T06:14:59;4.07;;;1.10;;
52041;SDS011;38052;45.944;13.624;2024-02-14T06:17:26;5.07;;;1.20;;
52041;SDS011;38052;45.944;13.624;2024-02-14T06:19:53;4.13;;;1.65;;
52041;SDS011;38052;45.944;13.624;2024-02-14T06:22:19;2.67;;;1.02;;
52041;SDS011;38052;45.944;13.624;2024-02-14T06:24:46;4.47;;;1.67;;
52041;SDS011;38052;45.944;13.624;2024-02-14T06:27:15;3.67;;;0.98;;
52041;SDS011;38052;45.944;13.624;2024-02-14T06:29:42;3.85;;;1.00;;
52041;SDS011;38052;45.944;13.624;2024-02-14T06:32:08;4.35;;;0.93;;
52041;SDS011;38052;45.944;13.624;2024-02-14T06:34:34;2.83;;;1.05;;
52041;SDS011;38052;45.944;13.624;2024-02-14T06:37:02;2.70;;;1.00;;
52041;SDS011;38052;45.944;13.624;2024-02-14T06:39:29;5.00;;;1.20;;
52041;SDS011;38052;45.944;13.624;2024-02-14T06:41:55;3.25;;;1.50;;
52041;SDS011;38052;45.944;13.624;2024-02-14T06:44:22;7.68;;;1.73;;
52041;SDS011;38052;45.944;13.624;2024-02-14T06:46:48;3.97;;;1.30;;
52041;SDS011;38052;45.944;13.624;2024-02-14T06:49:15;3.05;;;0.93;;
52041;SDS011;38052;45.944;13.624;2024-02-14T06:51:42;4.88;;;1.05;;
52041;SDS011;38052;45.944;13.624;2024-02-14T06:54:08;5.78;;;1.27;;
52041;SDS011;38052;45.944;13.624;2024-02-14T06:56:35;2.83;;;1.17;;
52041;SDS011;38052;45.944;13.624;2024-02-14T06:59:02;1.27;;;0.73;;
52041;SDS011;38052;45.944;13.624;2024-02-14T07:01:28;6.15;;;1.60;;
52041;SDS011;38052;45.944;13.624;2024-02-14T07:03:55;7.13;;;0.93;;
52041;SDS011;38052;45.944;13.624;2024-02-14T07:06:21;5.28;;;1.02;;
52041;SDS011;38052;45.944;13.624;2024-02-14T07:08:47;8.80;;;1.38;;
52041;SDS011;38052;45.944;13.624;2024-02-14T07:11:14;5.40;;;1.13;;
52041;SDS011;38052;45.944;13.624;2024-02-14T07:13:40;3.90;;;1.00;;
52041;SDS011;38052;45.944;13.624;2024-02-14T07:16:07;3.50;;;1.33;;
52041;SDS011;38052;45.944;13.624;2024-02-14T07:18:33;6.97;;;1.38;;
52041;SDS011;38052;45.944;13.624;2024-02-14T07:21:00;11.07;;;1.13;;
52041;SDS011;38052;45.944;13.624;2024-02-14T07:23:27;7.93;;;1.05;;
52041;SDS011;38052;45.944;13.624;2024-02-14T07:25:53;3.28;;;1.50;;
52041;SDS011;38052;45.944;13.624;2024-02-14T07:28:20;6.03;;;1.25;;
52041;SDS011;38052;45.944;13.624;2024-02-14T07:30:47;6.70;;;1.02;;
52041;SDS011;38052;45.944;13.624;2024-02-14T07:33:13;2.45;;;1.00;;
52041;SDS011;38052;45.944;13.624;2024-02-14T07:35:40;2.60;;;1.30;;
52041;SDS011;38052;45.944;13.624;2024-02-14T07:38:08;1.45;;;0.93;;
52041;SDS011;38052;45.944;13.624;2024-02-14T07:40:34;7.40;;;1.90;;
52041;SDS011;38052;45.944;13.624;2024-02-14T07:43:00;2.63;;;1.08;;
52041;SDS011;38052;45.944;13.624;2024-02-14T07:45:27;6.30;;;1.20;;
52041;SDS011;38052;45.944;13.624;2024-02-14T07:47:53;2.95;;;1.60;;
52041;SDS011;38052;45.944;13.624;2024-02-14T07:50:19;4.05;;;0.98;;
52041;SDS011;38052;45.944;13.624;2024-02-14T07:52:46;7.65;;;1.60;;
52041;SDS011;38052;45.944;13.624;2024-02-14T07:55:13;2.38;;;0.80;;
52041;SDS011;38052;45.944;13.624;2024-02-14T07:57:40;2.42;;;0.95;;
52041;SDS011;38052;45.944;13.624;2024-02-14T08:00:07;4.78;;;1.58;;
52041;SDS011;38052;45.944;13.624;2024-02-14T08:02:34;7.50;;;1.25;;
52041;SDS011;38052;45.944;13.624;2024-02-14T08:05:00;2.33;;;1.30;;
52041;SDS011;38052;45.944;13.624;2024-02-14T08:07:27;7.80;;;2.38;;
52041;SDS011;38052;45.944;13.624;2024-02-14T08:09:54;2.38;;;1.00;;
52041;SDS011;38052;45.944;13.624;2024-02-14T08:12:20;5.38;;;1.50;;
52041;SDS011;38052;45.944;13.624;2024-02-14T08:14:47;3.45;;;1.00;;
52041;SDS011;38052;45.944;13.624;2024-02-14T08:17:13;2.83;;;1.27;;
52041;SDS011;38052;45.944;13.624;2024-02-14T08:19:40;6.70;;;2.10;;
52041;SDS011;38052;45.944;13.624;2024-02-14T08:22:06;6.95;;;1.30;;
52041;SDS011;38052;45.944;13.624;2024-02-14T08:24:33;5.32;;;1.58;;
52041;SDS011;38052;45.944;13.624;2024-02-14T08:26:59;3.55;;;1.50;;
52041;SDS011;38052;45.944;13.624;2024-02-14T08:29:26;5.15;;;1.50;;
52041;SDS011;38052;45.944;13.624;2024-02-14T08:31:52;6.25;;;1.35;;
52041;SDS011;38052;45.944;13.624;2024-02-14T08:34:18;5.70;;;1.02;;
52041;SDS011;38052;45.944;13.624;2024-02-14T08:36:46;3.28;;;1.38;;
52041;SDS011;38052;45.944;13.624;2024-02-14T08:39:12;5.88;;;1.25;;
52041;SDS011;38052;45.944;13.624;2024-02-14T08:41:39;3.10;;;1.40;;
52041;SDS011;38052;45.944;13.624;2024-02-14T08:44:06;10.50;;;1.80;;
52041;SDS011;38052;45.944;13.624;2024-02-14T08:46:32;5.10;;;1.50;;
52041;SDS011;38052;45.944;13.624;2024-02-14T08:49:01;6.93;;;1.80;;
52041;SDS011;38052;45.944;13.624;2024-02-14T08:51:30;10.40;;;1.88;;
52041;SDS011;38052;45.944;13.624;2024-02-14T08:53:56;6.93;;;1.20;;
52041;SDS011;38052;45.944;13.624;2024-02-14T08:56:24;6.40;;;1.85;;
52041;SDS011;38052;45.944;13.624;2024-02-14T08:58:50;7.03;;;2.05;;
52041;SDS011;38052;45.944;13.624;2024-02-14T09:01:17;12.93;;;1.67;;
52041;SDS011;38052;45.944;13.624;2024-02-14T09:03:45;6.13;;;2.50;;
52041;SDS011;38052;45.944;13.624;2024-02-14T09:06:13;7.82;;;2.03;;
52041;SDS011;38052;45.944;13.624;2024-02-14T09:08:39;3.55;;;1.52;;
52041;SDS011;38052;45.944;13.624;2024-02-14T09:11:06;3.53;;;1.25;;
52041;SDS011;38052;45.944;13.624;2024-02-14T09:13:33;3.20;;;1.52;;
52041;SDS011;38052;45.944;13.624;2024-02-14T09:15:59;3.53;;;1.45;;
52041;SDS011;38052;45.944;13.624;2024-02-14T09:18:26;8.85;;;1.52;;
52041;SDS011;38052;45.944;13.624;2024-02-14T09:20:52;2.50;;;1.42;;
52041;SDS011;38052;45.944;13.624;2024-02-14T09:23:18;4.70;;;1.25;;
52041;SDS011;38052;45.944;13.624;2024-02-14T09:25:46;6.57;;;1.42;;
52041;SDS011;38052;45.944;13.624;2024-02-14T09:28:12;2.70;;;1.63;;
52041;SDS011;38052;45.944;13.624;2024-02-14T09:30:39;3.70;;;1.48;;
52041;SDS011;38052;45.944;13.624;2024-02-14T09:33:05;4.07;;;1.38;;
52041;SDS011;38052;45.944;13.624;2024-02-14T09:35:32;3.72;;;1.13;;
52041;SDS011;38052;45.944;13.624;2024-02-14T09:37:58;4.32;;;1.30;;
52041;SDS011;38052;45.944;13.624;2024-02-14T09:40:25;3.75;;;1.20;;
52041;SDS011;38052;45.944;13.624;2024-02-14T09:42:55;8.50;;;1.27;;
52041;SDS011;38052;45.944;13.624;2024-02-14T09:45:26;4.93;;;1.25;;
52041;SDS011;38052;45.944;13.624;2024-02-14T09:47:52;3.00;;;1.17;;
52041;SDS011;38052;45.944;13.624;2024-02-14T09:50:19;8.10;;;1.40;;
52041;SDS011;38052;45.944;13.624;2024-02-14T09:52:48;4.55;;;1.67;;
52041;SDS011;38052;45.944;13.624;2024-02-14T09:55:15;3.38;;;1.05;;
52041;SDS011;38052;45.944;13.624;2024-02-14T09:57:41;4.78;;;1.52;;
52041;SDS011;38052;45.944;13.624;2024-02-14T10:00:11;3.85;;;1.90;;
52041;SDS011;38052;45.944;13.624;2024-02-14T10:02:40;4.90;;;1.95;;
52041;SDS011;38052;45.944;13.624;2024-02-14T10:05:06;4.60;;;1.50;;
52041;SDS011;38052;45.944;13.624;2024-02-14T10:07:43;3.38;;;1.38;;
52041;SDS011;38052;45.944;13.624;2024-02-14T10:10:10;2.38;;;0.98;;
52041;SDS011;38052;45.944;13.624;2024-02-14T10:12:36;4.75;;;1.30;;
52041;SDS011;38052;45.944;13.624;2024-02-14T10:15:05;5.05;;;1.02;;
52041;SDS011;38052;45.944;13.624;2024-02-14T10:17:35;2.58;;;0.82;;
52041;SDS011;38052;45.944;13.624;2024-02-14T10:20:02;3.05;;;0.90;;
52041;SDS011;38052;45.944;13.624;2024-02-14T10:22:37;2.88;;;1.10;;
52041;SDS011;38052;45.944;13.624;2024-02-14T10:25:04;1.92;;;0.95;;
52041;SDS011;38052;45.944;13.624;2024-02-14T10:27:40;3.13;;;1.00;;
52041;SDS011;38052;45.944;13.624;2024-02-14T10:30:06;6.32;;;1.48;;
52041;SDS011;38052;45.944;13.624;2024-02-14T10:32:36;2.75;;;1.60;;
52041;SDS011;38052;45.944;13.624;2024-02-14T10:35:04;2.55;;;1.30;;
52041;SDS011;38052;45.944;13.624;2024-02-14T10:37:33;4.82;;;1.60;;
52041;SDS011;38052;45.944;13.624;2024-02-14T10:40:01;3.55;;;1.60;;
52041;SDS011;38052;45.944;13.624;2024-02-14T10:42:28;2.33;;;1.33;;
52041;SDS011;38052;45.944;13.624;2024-02-14T10:44:54;2.92;;;1.10;;
52041;SDS011;38052;45.944;13.624;2024-02-14T10:47:21;25.05;;;2.80;;
52041;SDS011;38052;45.944;13.624;2024-02-14T10:49:50;3.95;;;1.45;;
52041;SDS011;38052;45.944;13.624;2024-02-14T10:52:17;3.42;;;1.58;;
52041;SDS011;38052;45.944;13.624;2024-02-14T10:54:47;2.22;;;1.20;;
52041;SDS011;38052;45.944;13.624;2024-02-14T10:57:16;2.63;;;1.60;;
52041;SDS011;38052;45.944;13.624;2024-02-14T10:59:44;3.30;;;1.90;;
52041;SDS011;38052;45.944;13.624;2024-02-14T11:02:12;2.97;;;2.25;;
52041;SDS011;38052;45.944;13.624;2024-02-14T11:04:38;4.97;;;2.40;;
52041;SDS011;38052;45.944;13.624;2024-02-14T11:07:08;4.80;;;2.95;;
52041;SDS011;38052;45.944;13.624;2024-02-14T11:09:38;5.47;;;1.90;;
52041;SDS011;38052;45.944;13.624;2024-02-14T11:12:07;4.93;;;2.20;;
52041;SDS011;38052;45.944;13.624;2024-02-14T11:14:34;7.50;;;2.90;;
52041;SDS011;38052;45.944;13.624;2024-02-14T11:17:02;3.92;;;2.58;;
52041;SDS011;38052;45.944;13.624;2024-02-14T11:19:31;8.07;;;3.90;;
52041;SDS011;38052;45.944;13.624;2024-02-14T11:21:58;5.22;;;2.72;;
52041;SDS011;38052;45.944;13.624;2024-02-14T11:24:28;5.43;;;3.00;;
52041;SDS011;38052;45.944;13.624;2024-02-14T11:26:55;4.43;;;2.70;;
52041;SDS011;38052;45.944;13.624;2024-02-14T11:29:28;4.95;;;3.15;;
52041;SDS011;38052;45.944;13.624;2024-02-14T11:31:58;6.72;;;3.17;;
52041;SDS011;38052;45.944;13.624;2024-02-14T11:34:28;5.47;;;3.33;;
52041;SDS011;38052;45.944;13.624;2024-02-14T11:36:57;13.48;;;3.97;;
52041;SDS011;38052;45.944;13.624;2024-02-14T11:39:24;13.40;;;3.47;;
52041;SDS011;38052;45.944;13.624;2024-02-14T11:41:51;4.63;;;2.63;;
52041;SDS011;38052;45.944;13.624;2024-02-14T11:44:20;5.25;;;3.70;;
52041;SDS011;38052;45.944;13.624;2024-02-14T11:46:50;4.32;;;2.55;;
52041;SDS011;38052;45.944;13.624;2024-02-14T11:49:18;5.28;;;3.17;;
52041;SDS011;38052;45.944;13.624;2024-02-14T11:51:46;4.60;;;2.53;;
52041;SDS011;38052;45.944;13.624;2024-02-14T11:54:13;3.97;;;2.78;;
52041;SDS011;38052;45.944;13.624;2024-02-14T11:56:39;4.40;;;2.58;;
52041;SDS011;38052;45.944;13.624;2024-02-14T11:59:06;6.05;;;2.67;;
52041;SDS011;38052;45.944;13.624;2024-02-14T12:01:36;6.15;;;3.00;;
52041;SDS011;38052;45.944;13.624;2024-02-14T12:04:07;4.15;;;2.65;;
52041;SDS011;38052;45.944;13.624;2024-02-14T12:06:39;4.50;;;2.70;;
52041;SDS011;38052;45.944;13.624;2024-02-14T12:09:07;6.15;;;2.67;;
52041;SDS011;38052;45.944;13.624;2024-02-14T12:11:37;6.15;;;3.17;;
52041;SDS011;38052;45.944;13.624;2024-02-14T12:14:07;6.30;;;2.65;;
52041;SDS011;38052;45.944;13.624;2024-02-14T12:16:34;6.40;;;2.53;;
52041;SDS011;38052;45.944;13.624;2024-02-14T12:19:05;5.43;;;3.53;;
52041;SDS011;38052;45.944;13.624;2024-02-14T12:21:38;5.70;;;3.33;;
52041;SDS011;38052;45.944;13.624;2024-02-14T12:24:07;5.25;;;3.35;;
52041;SDS011;38052;45.944;13.624;2024-02-14T12:26:35;7.80;;;3.08;;
52041;SDS011;38052;45.944;13.624;2024-02-14T12:29:13;7.05;;;3.58;;
52041;SDS011;38052;45.944;13.624;2024-02-14T12:31:39;6.00;;;3.25;;
52041;SDS011;38052;45.944;13.624;2024-02-14T12:34:07;4.70;;;2.22;;
52041;SDS011;38052;45.944;13.624;2024-02-14T12:36:36;7.82;;;3.22;;
52041;SDS011;38052;45.944;13.624;2024-02-14T12:39:03;9.13;;;3.17;;
52041;SDS011;38052;45.944;13.624;2024-02-14T12:41:30;5.90;;;3.40;;
52041;SDS011;38052;45.944;13.624;2024-02-14T12:43:57;4.55;;;2.47;;
52041;SDS011;38052;45.944;13.624;2024-02-14T12:46:24;4.13;;;3.00;;
52041;SDS011;38052;45.944;13.624;2024-02-14T12:48:50;4.82;;;3.78;;
52041;SDS011;38052;45.944;13.624;2024-02-14T12:51:17;3.25;;;2.28;;
52041;SDS011;38052;45.944;13.624;2024-02-14T12:53:43;5.60;;;2.90;;
52041;SDS011;38052;45.944;13.624;2024-02-14T12:56:10;6.30;;;3.55;;
52041;SDS011;38052;45.944;13.624;2024-02-14T12:58:36;4.82;;;2.60;;
52041;SDS011;38052;45.944;13.624;2024-02-14T13:01:03;7.65;;;3.55;;
52041;SDS011;38052;45.944;13.624;2024-02-14T13:03:35;5.35;;;3.28;;
52041;SDS011;38052;45.944;13.624;2024-02-14T13:06:03;6.30;;;3.35;;
52041;SDS011;38052;45.944;13.624;2024-02-14T13:08:29;5.35;;;3.53;;
52041;SDS011;38052;45.944;13.624;2024-02-14T13:10:56;7.75;;;4.05;;
52041;SDS011;38052;45.944;13.624;2024-02-14T13:13:22;5.97;;;3.38;;
52041;SDS011;38052;45.944;13.624;2024-02-14T13:15:49;6.68;;;3.33;;
52041;SDS011;38052;45.944;13.624;2024-02-14T13:18:15;6.22;;;3.70;;
52041;SDS011;38052;45.944;13.624;2024-02-14T13:20:42;9.18;;;3.42;;
52041;SDS011;38052;45.944;13.624;2024-02-14T13:23:09;4.95;;;3.40;;
52041;SDS011;38052;45.944;13.624;2024-02-14T13:25:35;4.30;;;3.22;;
52041;SDS011;38052;45.944;13.624;2024-02-14T13:28:02;8.95;;;3.78;;
52041;SDS011;38052;45.944;13.624;2024-02-14T13:30:29;5.80;;;3.63;;
52041;SDS011;38052;45.944;13.624;2024-02-14T13:32:55;5.40;;;3.50;;
52041;SDS011;38052;45.944;13.624;2024-02-14T13:35:22;3.90;;;2.80;;
52041;SDS011;38052;45.944;13.624;2024-02-14T13:37:48;4.82;;;3.13;;
52041;SDS011;38052;45.944;13.624;2024-02-14T13:40:15;6.35;;;4.25;;
52041;SDS011;38052;45.944;13.624;2024-02-14T13:42:41;5.55;;;3.67;;
52041;SDS011;38052;45.944;13.624;2024-02-14T13:45:08;5.18;;;3.58;;
52041;SDS011;38052;45.944;13.624;2024-02-14T13:47:35;5.32;;;3.28;;
52041;SDS011;38052;45.944;13.624;2024-02-14T13:50:04;7.00;;;3.20;;
52041;SDS011;38052;45.944;13.624;2024-02-14T13:52:30;5.22;;;3.17;;
52041;SDS011;38052;45.944;13.624;2024-02-14T13:54:58;4.38;;;2.90;;
52041;SDS011;38052;45.944;13.624;2024-02-14T13:57:24;4.80;;;3.38;;
52041;SDS011;38052;45.944;13.624;2024-02-14T13:59:50;5.07;;;2.63;;
52041;SDS011;38052;45.944;13.624;2024-02-14T14:02:17;5.38;;;3.17;;
52041;SDS011;38052;45.944;13.624;2024-02-14T14:04:44;5.15;;;2.75;;
52041;SDS011;38052;45.944;13.624;2024-02-14T14:07:10;6.03;;;2.72;;
52041;SDS011;38052;45.944;13.624;2024-02-14T14:09:37;4.95;;;2.35;;
52041;SDS011;38052;45.944;13.624;2024-02-14T14:12:04;2.63;;;1.98;;
52041;SDS011;38052;45.944;13.624;2024-02-14T14:14:31;4.93;;;2.53;;
52041;SDS011;38052;45.944;13.624;2024-02-14T14:16:58;4.25;;;2.33;;
52041;SDS011;38052;45.944;13.624;2024-02-14T14:19:24;6.97;;;3.00;;
52041;SDS011;38052;45.944;13.624;2024-02-14T14:21:51;3.17;;;2.30;;
52041;SDS011;38052;45.944;13.624;2024-02-14T14:24:17;3.85;;;2.22;;
52041;SDS011;38052;45.944;13.624;2024-02-14T14:26:43;2.60;;;1.80;;
52041;SDS011;38052;45.944;13.624;2024-02-14T14:29:10;3.33;;;2.50;;
52041;SDS011;38052;45.944;13.624;2024-02-14T14:31:36;4.50;;;2.55;;